sensor_id;sensor_type;location;lat;lon;timestamp;pressure;altitude;pressure_sealevel;temperature;humidity
21588;BME280;10956;48.878;13.316;2023-07-30T00:01:30;93881.78;;;18.42;100.00
21588;BME280;10956;48.878;13.316;2023-07-30T00:03:56;93874.56;;;18.43;100.00
21588;BME280;10956;48.878;13.316;2023-07-30T00:06:21;93884.91;;;18.44;100.00
21588;BME280;10956;48.878;13.316;2023-07-30T00:08:47;93892.59;;;18.46;100.00
21588;BME280;10956;48.878;13.316;2023-07-30T00:11:12;93900.59;;;18.46;100.00
21588;BME280;10956;48.878;13.316;2023-07-30T00:13:37;93897.94;;;18.46;100.00
21588;BME280;10956;48.878;13.316;2023-07-30T00:16:03;93889.47;;;18.44;100.00
21588;BME280;10956;48.878;13.316;2023-07-30T00:18:28;93878.16;;;18.47;100.00
21588;BME280;10956;48.878;13.316;2023-07-30T00:20:54;93880.34;;;18.45;100.00
21588;BME280;10956;48.878;13.316;2023-07-30T00:23:19;93880.34;;;18.45;100.00
21588;BME280;10956;48.878;13.316;2023-07-30T00:25:44;93881.47;;;18.44;100.00
21588;BME280;10956;48.878;13.316;2023-07-30T00:28:10;93878.88;;;18.56;100.00
21588;BME280;10956;48.878;13.316;2023-07-30T00:30:35;93881.91;;;18.46;100.00
21588;BME280;10956;48.878;13.316;2023-07-30T00:33:01;93872.53;;;18.39;100.00
21588;BME280;10956;48.878;13.316;2023-07-30T00:35:26;93879.28;;;18.37;100.00
21588;BME280;10956;48.878;13.316;2023-07-30T00:37:52;93875.53;;;18.38;100.00
21588;BME280;10956;48.878;13.316;2023-07-30T00:40:17;93871.75;;;18.39;100.00
21588;BME280;10956;48.878;13.316;2023-07-30T00:42:43;93867.19;;;18.39;100.00
21588;BME280;10956;48.878;13.316;2023-07-30T00:45:09;93865.63;;;18.38;100.00
21588;BME280;10956;48.878;13.316;2023-07-30T00:47:36;93860.75;;;18.40;100.00
21588;BME280;10956;48.878;13.316;2023-07-30T00:50:02;93869.09;;;18.39;100.00
21588;BME280;10956;48.878;13.316;2023-07-30T00:52:28;93866.41;;;18.39;100.00
21588;BME280;10956;48.878;13.316;2023-07-30T00:54:57;93864.06;;;18.37;100.00
21588;BME280;10956;48.878;13.316;2023-07-30T00:57:22;93878.50;;;18.36;100.00
21588;BME280;10956;48.878;13.316;2023-07-30T00:59:49;93875.38;;;18.34;100.00
21588;BME280;10956;48.878;13.316;2023-07-30T01:02:15;93878.06;;;18.34;100.00
21588;BME280;10956;48.878;13.316;2023-07-30T01:04:42;93888.72;;;18.34;100.00
21588;BME280;10956;48.878;13.316;2023-07-30T01:07:07;93883.84;;;18.36;100.00
21588;BME280;10956;48.878;13.316;2023-07-30T01:09:33;93883.72;;;18.33;100.00
21588;BME280;10956;48.878;13.316;2023-07-30T01:12:00;93887.78;;;18.30;100.00
21588;BME280;10956;48.878;13.316;2023-07-30T01:14:25;93892.66;;;18.28;100.00
21588;BME280;10956;48.878;13.316;2023-07-30T01:16:52;93898.00;;;18.28;100.00
21588;BME280;10956;48.878;13.316;2023-07-30T01:19:18;93900.22;;;18.26;100.00
21588;BME280;10956;48.878;13.316;2023-07-30T01:21:43;93908.66;;;18.28;100.00
21588;BME280;10956;48.878;13.316;2023-07-30T01:24:09;93898.00;;;18.28;100.00
21588;BME280;10956;48.878;13.316;2023-07-30T01:26:54;93904.13;;;18.29;100.00
21588;BME280;10956;48.878;13.316;2023-07-30T01:29:22;93902.25;;;18.29;100.00
21588;BME280;10956;48.878;13.316;2023-07-30T01:31:56;93894.22;;;18.29;100.00
21588;BME280;10956;48.878;13.316;2023-07-30T01:34:23;93889.69;;;18.30;100.00
21588;BME280;10956;48.878;13.316;2023-07-30T01:36:51;93894.53;;;18.36;100.00
21588;BME280;10956;48.878;13.316;2023-07-30T01:39:18;93892.38;;;18.21;100.00
21588;BME280;10956;48.878;13.316;2023-07-30T01:41:44;93890.53;;;18.13;100.00
21588;BME280;10956;48.878;13.316;2023-07-30T01:44:09;93886.63;;;18.11;100.00
21588;BME280;10956;48.878;13.316;2023-07-30T01:46:35;93883.19;;;18.10;100.00
21588;BME280;10956;48.878;13.316;2023-07-30T01:49:00;93884.28;;;18.09;100.00
21588;BME280;10956;48.878;13.316;2023-07-30T01:51:25;93887.13;;;18.04;100.00
21588;BME280;10956;48.878;13.316;2023-07-30T01:53:51;93882.75;;;17.99;100.00
21588;BME280;10956;48.878;13.316;2023-07-30T01:56:16;93877.28;;;17.96;100.00
21588;BME280;10956;48.878;13.316;2023-07-30T01:58:42;93868.50;;;17.95;100.00
21588;BME280;10956;48.878;13.316;2023-07-30T02:01:07;93879.63;;;17.97;100.00
21588;BME280;10956;48.878;13.316;2023-07-30T02:03:32;93871.75;;;18.01;100.00
21588;BME280;10956;48.878;13.316;2023-07-30T02:05:58;93874.25;;;18.06;100.00
21588;BME280;10956;48.878;13.316;2023-07-30T02:08:23;93865.16;;;18.07;100.00
21588;BME280;10956;48.878;13.316;2023-07-30T02:10:58;93857.16;;;18.07;100.00
21588;BME280;10956;48.878;13.316;2023-07-30T02:13:25;93860.47;;;18.04;100.00
21588;BME280;10956;48.878;13.316;2023-07-30T02:15:51;93861.09;;;18.01;100.00
21588;BME280;10956;48.878;13.316;2023-07-30T02:18:16;93870.19;;;18.00;100.00
21588;BME280;10956;48.878;13.316;2023-07-30T02:20:42;93875.53;;;18.00;100.00
21588;BME280;10956;48.878;13.316;2023-07-30T02:23:07;93866.91;;;18.03;100.00
21588;BME280;10956;48.878;13.316;2023-07-30T02:25:33;93856.22;;;18.03;100.00
21588;BME280;10956;48.878;13.316;2023-07-30T02:27:59;93849.78;;;18.04;100.00
21588;BME280;10956;48.878;13.316;2023-07-30T02:30:26;93848.69;;;18.05;100.00
21588;BME280;10956;48.878;13.316;2023-07-30T02:32:51;93840.06;;;18.08;100.00
21588;BME280;10956;48.878;13.316;2023-07-30T02:35:16;93841.63;;;18.09;100.00
21588;BME280;10956;48.878;13.316;2023-07-30T02:37:42;93834.72;;;18.08;100.00
21588;BME280;10956;48.878;13.316;2023-07-30T02:40:08;93844.47;;;18.04;100.00
21588;BME280;10956;48.878;13.316;2023-07-30T02:42:33;93834.44;;;18.01;100.00
21588;BME280;10956;48.878;13.316;2023-07-30T02:44:59;93831.31;;;17.99;100.00
21588;BME280;10956;48.878;13.316;2023-07-30T02:47:24;93828.66;;;17.99;100.00
21588;BME280;10956;48.878;13.316;2023-07-30T02:49:50;93818.44;;;18.01;100.00
21588;BME280;10956;48.878;13.316;2023-07-30T02:52:15;93817.34;;;18.02;100.00
21588;BME280;10956;48.878;13.316;2023-07-30T02:54:40;93821.25;;;18.04;100.00
21588;BME280;10956;48.878;13.316;2023-07-30T02:57:06;93815.59;;;18.06;100.00
21588;BME280;10956;48.878;13.316;2023-07-30T02:59:31;93817.63;;;18.09;100.00
21588;BME280;10956;48.878;13.316;2023-07-30T03:02:01;93833.28;;;18.11;100.00
21588;BME280;10956;48.878;13.316;2023-07-30T03:04:26;93831.72;;;18.10;100.00
21588;BME280;10956;48.878;13.316;2023-07-30T03:06:51;93829.38;;;18.08;100.00
21588;BME280;10956;48.878;13.316;2023-07-30T03:09:17;93833.16;;;18.07;100.00
21588;BME280;10956;48.878;13.316;2023-07-30T03:11:42;93834.72;;;18.08;100.00
21588;BME280;10956;48.878;13.316;2023-07-30T03:14:08;93839.13;;;18.04;100.00
21588;BME280;10956;48.878;13.316;2023-07-30T03:16:33;93852.19;;;17.97;100.00
21588;BME280;10956;48.878;13.316;2023-07-30T03:18:59;93847.94;;;17.96;100.00
21588;BME280;10956;48.878;13.316;2023-07-30T03:21:24;93863.94;;;17.96;100.00
21588;BME280;10956;48.878;13.316;2023-07-30T03:23:49;93860.22;;;17.80;100.00
21588;BME280;10956;48.878;13.316;2023-07-30T03:26:15;93860.41;;;17.74;100.00
21588;BME280;10956;48.878;13.316;2023-07-30T03:28:40;93850.84;;;17.73;100.00
21588;BME280;10956;48.878;13.316;2023-07-30T03:31:05;93855.53;;;17.77;100.00
21588;BME280;10956;48.878;13.316;2023-07-30T03:33:31;93862.28;;;17.74;100.00
21588;BME280;10956;48.878;13.316;2023-07-30T03:35:57;93851.94;;;17.72;100.00
21588;BME280;10956;48.878;13.316;2023-07-30T03:38:22;93850.06;;;17.73;100.00
21588;BME280;10956;48.878;13.316;2023-07-30T03:40:48;93855.25;;;17.69;100.00
21588;BME280;10956;48.878;13.316;2023-07-30T03:43:13;93855.72;;;17.71;100.00
21588;BME280;10956;48.878;13.316;2023-07-30T03:45:39;93859.94;;;17.72;100.00
21588;BME280;10956;48.878;13.316;2023-07-30T03:48:04;93855.56;;;17.68;100.00
21588;BME280;10956;48.878;13.316;2023-07-30T03:50:30;93846.00;;;17.67;100.00
21588;BME280;10956;48.878;13.316;2023-07-30T03:52:55;93847.56;;;17.68;100.00
21588;BME280;10956;48.878;13.316;2023-07-30T03:55:20;93842.06;;;17.64;100.00
21588;BME280;10956;48.878;13.316;2023-07-30T03:57:46;93853.03;;;17.63;100.00
21588;BME280;10956;48.878;13.316;2023-07-30T04:00:11;93860.25;;;17.62;100.00
21588;BME280;10956;48.878;13.316;2023-07-30T04:02:37;93858.84;;;17.65;100.00
21588;BME280;10956;48.878;13.316;2023-07-30T04:05:02;93853.81;;;17.63;100.00
21588;BME280;10956;48.878;13.316;2023-07-30T04:07:28;93866.22;;;17.59;100.00
21588;BME280;10956;48.878;13.316;2023-07-30T04:09:53;93868.56;;;17.61;100.00
21588;BME280;10956;48.878;13.316;2023-07-30T04:12:19;93857.13;;;17.60;100.00
21588;BME280;10956;48.878;13.316;2023-07-30T04:14:46;93856.53;;;17.46;100.00
21588;BME280;10956;48.878;13.316;2023-07-30T04:17:12;93855.09;;;17.49;100.00
21588;BME280;10956;48.878;13.316;2023-07-30T04:19:37;93841.81;;;17.40;100.00
21588;BME280;10956;48.878;13.316;2023-07-30T04:22:03;93829.91;;;17.37;100.00
21588;BME280;10956;48.878;13.316;2023-07-30T04:24:28;93839.00;;;17.28;100.00
21588;BME280;10956;48.878;13.316;2023-07-30T04:26:53;93855.31;;;17.18;100.00
21588;BME280;10956;48.878;13.316;2023-07-30T04:29:19;93860.63;;;17.18;100.00
21588;BME280;10956;48.878;13.316;2023-07-30T04:31:44;93853.75;;;17.17;100.00
21588;BME280;10956;48.878;13.316;2023-07-30T04:34:10;93858.44;;;17.20;100.00
21588;BME280;10956;48.878;13.316;2023-07-30T04:36:35;93845.59;;;17.22;100.00
21588;BME280;10956;48.878;13.316;2023-07-30T04:39:00;93847.16;;;17.23;100.00
21588;BME280;10956;48.878;13.316;2023-07-30T04:41:26;93859.84;;;17.26;100.00
21588;BME280;10956;48.878;13.316;2023-07-30T04:43:51;93873.00;;;17.31;100.00
21588;BME280;10956;48.878;13.316;2023-07-30T04:46:16;93872.53;;;17.29;100.00
21588;BME280;10956;48.878;13.316;2023-07-30T04:48:42;93868.44;;;17.31;100.00
21588;BME280;10956;48.878;13.316;2023-07-30T04:51:07;93867.66;;;17.31;100.00
21588;BME280;10956;48.878;13.316;2023-07-30T04:53:33;93865.94;;;17.35;100.00
21588;BME280;10956;48.878;13.316;2023-07-30T04:55:58;93879.88;;;17.32;100.00
21588;BME280;10956;48.878;13.316;2023-07-30T04:58:24;93884.13;;;17.33;100.00
21588;BME280;10956;48.878;13.316;2023-07-30T05:00:49;93888.50;;;17.29;100.00
21588;BME280;10956;48.878;13.316;2023-07-30T05:03:15;93878.94;;;17.28;100.00
21588;BME280;10956;48.878;13.316;2023-07-30T05:05:41;93885.38;;;17.27;100.00
21588;BME280;10956;48.878;13.316;2023-07-30T05:08:07;93887.72;;;17.28;100.00
21588;BME280;10956;48.878;13.316;2023-07-30T05:10:33;93892.56;;;17.35;100.00
21588;BME280;10956;48.878;13.316;2023-07-30T05:12:58;93889.59;;;17.36;100.00
21588;BME280;10956;48.878;13.316;2023-07-30T05:15:24;93896.34;;;17.34;100.00
21588;BME280;10956;48.878;13.316;2023-07-30T05:17:49;93903.84;;;17.32;100.00
21588;BME280;10956;48.878;13.316;2023-07-30T05:20:14;93904.16;;;17.39;100.00
21588;BME280;10956;48.878;13.316;2023-07-30T05:22:40;93905.09;;;17.43;100.00
21588;BME280;10956;48.878;13.316;2023-07-30T05:25:05;93909.78;;;17.46;100.00
21588;BME280;10956;48.878;13.316;2023-07-30T05:27:31;93918.56;;;17.47;100.00
21588;BME280;10956;48.878;13.316;2023-07-30T05:29:57;93918.72;;;17.50;100.00
21588;BME280;10956;48.878;13.316;2023-07-30T05:32:23;93929.84;;;17.52;100.00
21588;BME280;10956;48.878;13.316;2023-07-30T05:34:48;93937.84;;;17.52;100.00
21588;BME280;10956;48.878;13.316;2023-07-30T05:37:13;93927.03;;;17.57;100.00
21588;BME280;10956;48.878;13.316;2023-07-30T05:39:39;93932.66;;;17.82;100.00
21588;BME280;10956;48.878;13.316;2023-07-30T05:42:04;93942.16;;;18.08;100.00
21588;BME280;10956;48.878;13.316;2023-07-30T05:44:30;93938.19;;;18.23;100.00
21588;BME280;10956;48.878;13.316;2023-07-30T05:46:55;93931.94;;;18.19;100.00
21588;BME280;10956;48.878;13.316;2023-07-30T05:49:20;93929.28;;;18.11;100.00
21588;BME280;10956;48.878;13.316;2023-07-30T05:51:46;93926.94;;;18.09;100.00
21588;BME280;10956;48.878;13.316;2023-07-30T05:54:12;93938.03;;;18.20;100.00
21588;BME280;10956;48.878;13.316;2023-07-30T05:56:38;93937.38;;;18.31;100.00
21588;BME280;10956;48.878;13.316;2023-07-30T05:59:03;93943.09;;;18.51;100.00
21588;BME280;10956;48.878;13.316;2023-07-30T06:01:29;93949.50;;;18.58;100.00
21588;BME280;10956;48.878;13.316;2023-07-30T06:03:54;93944.03;;;18.55;100.00
21588;BME280;10956;48.878;13.316;2023-07-30T06:06:19;93942.13;;;18.55;100.00
21588;BME280;10956;48.878;13.316;2023-07-30T06:08:52;93947.16;;;18.57;100.00
21588;BME280;10956;48.878;13.316;2023-07-30T06:11:18;93957.19;;;18.60;100.00
21588;BME280;10956;48.878;13.316;2023-07-30T06:13:43;93960.16;;;18.67;100.00
21588;BME280;10956;48.878;13.316;2023-07-30T06:16:09;93966.97;;;19.15;100.00
21588;BME280;10956;48.878;13.316;2023-07-30T06:18:35;93952.53;;;19.57;100.00
21588;BME280;10956;48.878;13.316;2023-07-30T06:21:00;93956.75;;;19.79;100.00
21588;BME280;10956;48.878;13.316;2023-07-30T06:23:26;93958.84;;;20.07;100.00
21588;BME280;10956;48.878;13.316;2023-07-30T06:25:51;93965.69;;;20.28;100.00
21588;BME280;10956;48.878;13.316;2023-07-30T06:28:17;93967.75;;;20.44;100.00
21588;BME280;10956;48.878;13.316;2023-07-30T06:30:42;93967.75;;;20.44;100.00
21588;BME280;10956;48.878;13.316;2023-07-30T06:33:07;93977.03;;;20.25;100.00
21588;BME280;10956;48.878;13.316;2023-07-30T06:35:33;93976.97;;;20.01;100.00
21588;BME280;10956;48.878;13.316;2023-07-30T06:37:58;93963.31;;;19.82;100.00
21588;BME280;10956;48.878;13.316;2023-07-30T06:40:24;93965.66;;;19.83;100.00
21588;BME280;10956;48.878;13.316;2023-07-30T06:42:49;93983.59;;;20.16;100.00
21588;BME280;10956;48.878;13.316;2023-07-30T06:45:15;93990.75;;;20.69;100.00
21588;BME280;10956;48.878;13.316;2023-07-30T06:47:40;93988.28;;;21.37;100.00
21588;BME280;10956;48.878;13.316;2023-07-30T06:50:06;93985.91;;;21.88;100.00
21588;BME280;10956;48.878;13.316;2023-07-30T06:52:35;93992.94;;;22.20;100.00
21588;BME280;10956;48.878;13.316;2023-07-30T06:55:01;93998.88;;;22.42;100.00
21588;BME280;10956;48.878;13.316;2023-07-30T06:57:28;94006.16;;;22.41;100.00
21588;BME280;10956;48.878;13.316;2023-07-30T06:59:54;94000.53;;;22.62;100.00
21588;BME280;10956;48.878;13.316;2023-07-30T07:02:19;94000.66;;;22.97;100.00
21588;BME280;10956;48.878;13.316;2023-07-30T07:04:45;94007.50;;;22.95;100.00
21588;BME280;10956;48.878;13.316;2023-07-30T07:07:10;94007.59;;;22.82;100.00
21588;BME280;10956;48.878;13.316;2023-07-30T07:09:36;93999.53;;;22.98;100.00
21588;BME280;10956;48.878;13.316;2023-07-30T07:12:01;94006.88;;;23.17;100.00
21588;BME280;10956;48.878;13.316;2023-07-30T07:14:26;94001.66;;;23.24;100.00
21588;BME280;10956;48.878;13.316;2023-07-30T07:16:54;94001.25;;;22.91;100.00
21588;BME280;10956;48.878;13.316;2023-07-30T07:19:21;93997.66;;;22.39;100.00
21588;BME280;10956;48.878;13.316;2023-07-30T07:21:46;94001.06;;;22.08;100.00
21588;BME280;10956;48.878;13.316;2023-07-30T07:24:12;93994.63;;;21.85;100.00
21588;BME280;10956;48.878;13.316;2023-07-30T07:26:37;94004.63;;;21.72;100.00
21588;BME280;10956;48.878;13.316;2023-07-30T07:29:03;94000.41;;;21.59;100.00
21588;BME280;10956;48.878;13.316;2023-07-30T07:31:28;93998.28;;;21.65;100.00
21588;BME280;10956;48.878;13.316;2023-07-30T07:33:54;93998.88;;;21.86;100.00
21588;BME280;10956;48.878;13.316;2023-07-30T07:36:19;93987.19;;;22.06;100.00
21588;BME280;10956;48.878;13.316;2023-07-30T07:38:44;93994.00;;;22.32;100.00
21588;BME280;10956;48.878;13.316;2023-07-30T07:41:14;94001.13;;;22.40;100.00
21588;BME280;10956;48.878;13.316;2023-07-30T07:43:47;93998.94;;;22.30;100.00
21588;BME280;10956;48.878;13.316;2023-07-30T07:46:12;93989.19;;;22.09;100.00
21588;BME280;10956;48.878;13.316;2023-07-30T07:48:41;93999.16;;;21.69;100.00
21588;BME280;10956;48.878;13.316;2023-07-30T07:51:08;93996.88;;;21.18;100.00
21588;BME280;10956;48.878;13.316;2023-07-30T07:53:33;93998.56;;;20.74;100.00
21588;BME280;10956;48.878;13.316;2023-07-30T07:55:59;94007.69;;;20.61;100.00
21588;BME280;10956;48.878;13.316;2023-07-30T07:58:24;93998.44;;;20.71;100.00
21588;BME280;10956;48.878;13.316;2023-07-30T08:00:50;94002.03;;;21.11;100.00
21588;BME280;10956;48.878;13.316;2023-07-30T08:03:15;93995.53;;;21.49;100.00
21588;BME280;10956;48.878;13.316;2023-07-30T08:05:40;93992.28;;;21.83;100.00
21588;BME280;10956;48.878;13.316;2023-07-30T08:08:06;93986.56;;;22.41;100.00
21588;BME280;10956;48.878;13.316;2023-07-30T08:10:31;93993.91;;;22.87;100.00
21588;BME280;10956;48.878;13.316;2023-07-30T08:12:57;94000.38;;;23.18;100.00
21588;BME280;10956;48.878;13.316;2023-07-30T08:15:22;94002.22;;;23.49;100.00
21588;BME280;10956;48.878;13.316;2023-07-30T08:17:48;93989.25;;;23.70;100.00
21588;BME280;10956;48.878;13.316;2023-07-30T08:20:13;93988.19;;;23.75;100.00
21588;BME280;10956;48.878;13.316;2023-07-30T08:22:39;93989.19;;;23.86;100.00
21588;BME280;10956;48.878;13.316;2023-07-30T08:25:04;93997.69;;;23.88;100.00
21588;BME280;10956;48.878;13.316;2023-07-30T08:27:30;93982.53;;;23.80;99.04
21588;BME280;10956;48.878;13.316;2023-07-30T08:29:55;93996.97;;;23.91;98.96
21588;BME280;10956;48.878;13.316;2023-07-30T08:32:21;93992.38;;;23.92;97.57
21588;BME280;10956;48.878;13.316;2023-07-30T08:34:46;93982.50;;;23.61;96.90
21588;BME280;10956;48.878;13.316;2023-07-30T08:37:12;93992.53;;;23.29;98.04
21588;BME280;10956;48.878;13.316;2023-07-30T08:39:37;93997.00;;;22.90;98.83
21588;BME280;10956;48.878;13.316;2023-07-30T08:42:03;93982.44;;;22.59;99.28
21588;BME280;10956;48.878;13.316;2023-07-30T08:44:29;93981.31;;;22.60;100.00
21588;BME280;10956;48.878;13.316;2023-07-30T08:46:54;93983.03;;;22.68;100.00
21588;BME280;10956;48.878;13.316;2023-07-30T08:49:20;93981.91;;;22.69;100.00
21588;BME280;10956;48.878;13.316;2023-07-30T08:51:46;93978.97;;;22.74;100.00
21588;BME280;10956;48.878;13.316;2023-07-30T08:54:14;93980.19;;;22.61;100.00
21588;BME280;10956;48.878;13.316;2023-07-30T08:56:41;93981.88;;;22.38;100.00
21588;BME280;10956;48.878;13.316;2023-07-30T08:59:07;93977.81;;;22.28;100.00
21588;BME280;10956;48.878;13.316;2023-07-30T09:01:37;93981.97;;;22.26;100.00
21588;BME280;10956;48.878;13.316;2023-07-30T09:04:04;93985.78;;;22.24;100.00
21588;BME280;10956;48.878;13.316;2023-07-30T09:06:30;93980.94;;;22.46;100.00
21588;BME280;10956;48.878;13.316;2023-07-30T09:08:57;93981.22;;;22.72;100.00
21588;BME280;10956;48.878;13.316;2023-07-30T09:11:25;93982.72;;;23.01;100.00
21588;BME280;10956;48.878;13.316;2023-07-30T09:13:55;93981.38;;;23.11;100.00
21588;BME280;10956;48.878;13.316;2023-07-30T09:16:26;93983.13;;;23.19;100.00
21588;BME280;10956;48.878;13.316;2023-07-30T09:18:52;93977.34;;;23.36;100.00
21588;BME280;10956;48.878;13.316;2023-07-30T09:21:19;93988.66;;;23.61;99.40
21588;BME280;10956;48.878;13.316;2023-07-30T09:23:47;93989.59;;;23.69;96.06
21588;BME280;10956;48.878;13.316;2023-07-30T09:26:13;93990.88;;;23.75;95.55
21588;BME280;10956;48.878;13.316;2023-07-30T09:28:42;93989.16;;;23.67;97.50
21588;BME280;10956;48.878;13.316;2023-07-30T09:31:09;93982.69;;;23.52;99.24
21588;BME280;10956;48.878;13.316;2023-07-30T09:33:35;93995.19;;;23.44;100.00
21588;BME280;10956;48.878;13.316;2023-07-30T09:36:07;93984.28;;;23.37;98.98
21588;BME280;10956;48.878;13.316;2023-07-30T09:38:38;93988.28;;;23.28;99.36
21588;BME280;10956;48.878;13.316;2023-07-30T09:41:04;93993.28;;;23.10;100.00
21588;BME280;10956;48.878;13.316;2023-07-30T09:43:34;93984.09;;;22.95;100.00
21588;BME280;10956;48.878;13.316;2023-07-30T09:46:04;93984.53;;;22.81;100.00
21588;BME280;10956;48.878;13.316;2023-07-30T09:48:31;93982.88;;;22.61;100.00
21588;BME280;10956;48.878;13.316;2023-07-30T09:51:00;93981.31;;;22.60;100.00
21588;BME280;10956;48.878;13.316;2023-07-30T09:53:29;93983.13;;;22.56;100.00
21588;BME280;10956;48.878;13.316;2023-07-30T09:55:59;93981.38;;;22.48;100.00
21588;BME280;10956;48.878;13.316;2023-07-30T09:58:24;93979.47;;;22.33;100.00
21588;BME280;10956;48.878;13.316;2023-07-30T10:00:51;93983.59;;;22.14;100.00
21588;BME280;10956;48.878;13.316;2023-07-30T10:03:17;93984.09;;;22.04;100.00
21588;BME280;10956;48.878;13.316;2023-07-30T10:05:44;93973.34;;;22.04;100.00
21588;BME280;10956;48.878;13.316;2023-07-30T10:08:17;93964.53;;;22.19;100.00
21588;BME280;10956;48.878;13.316;2023-07-30T10:10:44;93970.28;;;22.34;100.00
21588;BME280;10956;48.878;13.316;2023-07-30T10:13:11;93966.41;;;22.63;99.84
21588;BME280;10956;48.878;13.316;2023-07-30T10:15:38;93974.22;;;22.99;98.07
21588;BME280;10956;48.878;13.316;2023-07-30T10:18:04;93975.44;;;23.37;96.43
21588;BME280;10956;48.878;13.316;2023-07-30T10:20:30;93978.06;;;23.68;95.20
21588;BME280;10956;48.878;13.316;2023-07-30T10:23:00;93959.44;;;23.98;91.56
21588;BME280;10956;48.878;13.316;2023-07-30T10:25:51;93963.78;;;24.26;91.04
21588;BME280;10956;48.878;13.316;2023-07-30T10:28:30;93964.66;;;24.30;89.30
21588;BME280;10956;48.878;13.316;2023-07-30T10:30:58;93968.63;;;24.36;89.57
21588;BME280;10956;48.878;13.316;2023-07-30T10:33:23;93970.31;;;24.44;90.11
21588;BME280;10956;48.878;13.316;2023-07-30T10:35:54;93976.56;;;24.29;90.82
21588;BME280;10956;48.878;13.316;2023-07-30T10:38:28;93974.44;;;24.19;92.83
21588;BME280;10956;48.878;13.316;2023-07-30T10:41:07;93973.06;;;24.47;93.74
21588;BME280;10956;48.878;13.316;2023-07-30T10:43:35;93971.63;;;24.76;92.09
21588;BME280;10956;48.878;13.316;2023-07-30T10:46:01;93983.00;;;25.12;90.44
21588;BME280;10956;48.878;13.316;2023-07-30T10:48:37;93974.06;;;25.34;90.29
21588;BME280;10956;48.878;13.316;2023-07-30T10:51:05;93965.81;;;25.50;88.94
21588;BME280;10956;48.878;13.316;2023-07-30T10:53:31;93968.38;;;25.66;87.98
21588;BME280;10956;48.878;13.316;2023-07-30T10:55:58;93963.06;;;25.73;87.11
21588;BME280;10956;48.878;13.316;2023-07-30T10:58:27;93974.66;;;25.77;86.94
21588;BME280;10956;48.878;13.316;2023-07-30T11:00:53;93969.91;;;25.67;86.44
21588;BME280;10956;48.878;13.316;2023-07-30T11:03:19;93974.91;;;25.38;86.23
21588;BME280;10956;48.878;13.316;2023-07-30T11:05:47;93968.69;;;25.08;87.48
21588;BME280;10956;48.878;13.316;2023-07-30T11:08:13;93969.81;;;24.84;89.02
21588;BME280;10956;48.878;13.316;2023-07-30T11:10:46;93969.47;;;24.86;89.19
21588;BME280;10956;48.878;13.316;2023-07-30T11:13:13;93967.75;;;24.97;89.64
21588;BME280;10956;48.878;13.316;2023-07-30T11:15:43;93978.94;;;24.99;89.87
21588;BME280;10956;48.878;13.316;2023-07-30T11:18:10;93978.78;;;24.92;90.24
21588;BME280;10956;48.878;13.316;2023-07-30T11:20:36;93989.41;;;24.81;89.79
21588;BME280;10956;48.878;13.316;2023-07-30T11:23:02;93991.88;;;24.67;90.47
21588;BME280;10956;48.878;13.316;2023-07-30T11:25:28;93993.63;;;24.17;91.33
21588;BME280;10956;48.878;13.316;2023-07-30T11:27:53;93994.91;;;23.65;93.08
21588;BME280;10956;48.878;13.316;2023-07-30T11:30:19;94005.63;;;23.30;95.06
21588;BME280;10956;48.878;13.316;2023-07-30T11:32:44;93999.34;;;22.91;95.69
21588;BME280;10956;48.878;13.316;2023-07-30T11:35:11;93995.09;;;22.74;97.61
21588;BME280;10956;48.878;13.316;2023-07-30T11:37:38;94003.41;;;22.69;98.63
21588;BME280;10956;48.878;13.316;2023-07-30T11:40:09;94008.84;;;22.73;98.89
21588;BME280;10956;48.878;13.316;2023-07-30T11:42:36;94006.03;;;22.81;98.60
21588;BME280;10956;48.878;13.316;2023-07-30T11:45:21;94009.84;;;22.80;99.40
21588;BME280;10956;48.878;13.316;2023-07-30T11:47:48;94002.13;;;22.95;99.54
21588;BME280;10956;48.878;13.316;2023-07-30T11:50:14;93991.97;;;23.19;99.70
21588;BME280;10956;48.878;13.316;2023-07-30T11:52:56;93995.63;;;23.46;99.44
21588;BME280;10956;48.878;13.316;2023-07-30T11:55:22;93994.91;;;23.65;98.42
21588;BME280;10956;48.878;13.316;2023-07-30T11:57:50;93996.97;;;23.91;97.02
21588;BME280;10956;48.878;13.316;2023-07-30T12:00:15;93996.13;;;24.06;96.60
21588;BME280;10956;48.878;13.316;2023-07-30T12:02:41;93983.63;;;24.17;96.42
21588;BME280;10956;48.878;13.316;2023-07-30T12:05:10;93978.19;;;24.33;95.56
21588;BME280;10956;48.878;13.316;2023-07-30T12:07:40;93975.94;;;24.58;94.73
21588;BME280;10956;48.878;13.316;2023-07-30T12:10:10;93991.03;;;24.86;93.35
21588;BME280;10956;48.878;13.316;2023-07-30T12:12:35;93990.03;;;25.20;92.81
21588;BME280;10956;48.878;13.316;2023-07-30T12:15:01;93982.38;;;25.22;91.88
21588;BME280;10956;48.878;13.316;2023-07-30T12:17:26;93991.19;;;25.19;91.39
21588;BME280;10956;48.878;13.316;2023-07-30T12:19:52;93985.56;;;25.05;91.17
21588;BME280;10956;48.878;13.316;2023-07-30T12:22:17;93987.06;;;24.79;92.33
21588;BME280;10956;48.878;13.316;2023-07-30T12:24:43;93986.53;;;24.47;93.77
21588;BME280;10956;48.878;13.316;2023-07-30T12:27:08;93986.03;;;24.23;94.08
21588;BME280;10956;48.878;13.316;2023-07-30T12:29:33;93984.78;;;23.97;93.78
21588;BME280;10956;48.878;13.316;2023-07-30T12:31:59;93998.03;;;23.87;94.19
21588;BME280;10956;48.878;13.316;2023-07-30T12:34:25;93994.34;;;23.75;94.77
21588;BME280;10956;48.878;13.316;2023-07-30T12:36:50;93988.25;;;23.78;94.07
21588;BME280;10956;48.878;13.316;2023-07-30T12:39:16;93984.94;;;23.85;94.93